createdAt,value
2018-09-04T00:02:12.848Z,14.90
2018-09-04T00:05:10.586Z,14.80
2018-09-04T00:08:08.500Z,14.80
2018-09-04T00:11:06.139Z,14.80
2018-09-04T00:14:03.987Z,14.90
2018-09-04T00:17:01.633Z,14.90
2018-09-04T00:19:59.333Z,14.90
2018-09-04T00:22:56.980Z,14.90
2018-09-04T00:25:54.814Z,14.70
2018-09-04T00:28:52.595Z,14.70
2018-09-04T00:31:50.262Z,14.60
2018-09-04T00:34:48.247Z,14.60
2018-09-04T00:37:45.934Z,14.60
2018-09-04T00:40:44.789Z,14.60
2018-09-04T00:43:42.412Z,14.50
2018-09-04T00:46:39.825Z,14.60
2018-09-04T00:49:37.499Z,14.60
2018-09-04T00:52:35.166Z,14.50
2018-09-04T00:55:32.874Z,14.50
2018-09-04T00:58:30.720Z,14.40
2018-09-04T01:01:28.515Z,14.40
2018-09-04T01:04:26.270Z,14.50
2018-09-04T01:07:24.996Z,14.50
2018-09-04T01:10:22.822Z,14.50
2018-09-04T01:13:20.668Z,14.40
2018-09-04T01:16:19.324Z,14.40
2018-09-04T01:19:17.127Z,14.40
2018-09-04T01:22:14.666Z,14.50
2018-09-04T01:25:12.363Z,14.40
2018-09-04T01:28:09.978Z,14.30
2018-09-04T01:31:07.715Z,14.30
2018-09-04T01:34:05.285Z,14.20
2018-09-04T01:37:03.156Z,14.20
2018-09-04T01:40:00.915Z,14.20
2018-09-04T01:42:58.616Z,14.30
2018-09-04T01:45:56.333Z,14.40
2018-09-04T01:48:54.174Z,14.40
2018-09-04T01:51:51.957Z,14.40
2018-09-04T01:54:49.666Z,14.30
2018-09-04T01:57:47.314Z,14.20
2018-09-04T02:00:45.114Z,14.10
2018-09-04T02:03:42.687Z,14.10
2018-09-04T02:06:40.496Z,14.20
2018-09-04T02:09:38.055Z,14.10
2018-09-04T02:12:35.930Z,14.10
2018-09-04T02:15:33.646Z,14.00
2018-09-04T02:18:31.383Z,14.00
2018-09-04T02:21:29.371Z,13.90
2018-09-04T02:24:27.166Z,14.00
2018-09-04T02:27:24.889Z,14.00
2018-09-04T02:30:22.628Z,14.10
2018-09-04T02:33:20.426Z,14.00
2018-09-04T02:36:18.234Z,13.90
2018-09-04T02:39:17.127Z,14.00
2018-09-04T02:42:14.903Z,14.00
2018-09-04T02:45:12.790Z,14.00
2018-09-04T02:48:10.386Z,13.90
2018-09-04T02:51:08.355Z,13.80
2018-09-04T02:54:07.252Z,13.80
2018-09-04T02:57:05.007Z,13.80
2018-09-04T03:00:02.746Z,13.80
2018-09-04T03:03:00.369Z,13.80
2018-09-04T03:05:58.269Z,13.80
2018-09-04T03:08:56.298Z,13.90
2018-09-04T03:11:53.903Z,13.90
2018-09-04T03:14:51.788Z,13.70
2018-09-04T03:17:49.663Z,13.70
2018-09-04T03:20:48.366Z,13.70
2018-09-04T03:23:46.114Z,13.90
2018-09-04T03:26:43.737Z,13.90
2018-09-04T03:29:41.622Z,13.80
2018-09-04T03:32:39.689Z,13.80
2018-09-04T03:35:36.847Z,13.70
2018-09-04T03:38:34.843Z,13.80
2018-09-04T03:41:32.407Z,13.80
2018-09-04T03:44:30.054Z,13.70
2018-09-04T03:47:27.660Z,13.60
2018-09-04T03:50:25.298Z,13.60
2018-09-04T03:53:22.911Z,13.70
2018-09-04T03:56:20.590Z,13.70
2018-09-04T03:59:18.267Z,13.70
2018-09-04T04:02:16.152Z,13.80
2018-09-04T04:05:13.705Z,13.80
2018-09-04T04:08:11.502Z,13.80
2018-09-04T04:11:09.194Z,13.80
2018-09-04T04:14:09.845Z,13.80
2018-09-04T04:17:08.742Z,13.90
2018-09-04T04:20:06.846Z,13.90
2018-09-04T04:23:04.406Z,13.90
2018-09-04T04:26:03.412Z,13.90
2018-09-04T04:29:01.977Z,14.00
2018-09-04T04:31:59.723Z,14.00
2018-09-04T04:34:57.529Z,14.10
2018-09-04T04:37:55.280Z,14.10
2018-09-04T04:40:53.106Z,14.20
2018-09-04T04:43:50.846Z,14.20
2018-09-04T04:46:48.798Z,14.30
2018-09-04T04:49:46.539Z,14.40
2018-09-04T04:52:44.339Z,14.50
2018-09-04T04:55:41.902Z,14.50
2018-09-04T04:58:39.601Z,14.50
2018-09-04T05:01:37.475Z,14.60
2018-09-04T05:04:35.022Z,14.70
2018-09-04T05:07:32.595Z,14.80
2018-09-04T05:10:30.499Z,14.90
2018-09-04T05:13:28.120Z,15.10
2018-09-04T05:16:25.855Z,15.10
2018-09-04T05:19:23.831Z,15.20
2018-09-04T05:22:21.381Z,15.20
2018-09-04T05:25:19.163Z,15.30
2018-09-04T05:28:16.743Z,15.40
2018-09-04T05:31:14.232Z,15.40
2018-09-04T05:34:12.894Z,15.40
2018-09-04T05:37:10.507Z,15.50
2018-09-04T05:40:08.089Z,15.70
2018-09-04T05:43:07.835Z,15.80
2018-09-04T05:46:07.708Z,16.00
2018-09-04T05:49:05.330Z,16.00
2018-09-04T05:52:03.090Z,16.20
2018-09-04T05:55:00.860Z,16.40
2018-09-04T05:57:58.383Z,16.50
2018-09-04T06:00:59.283Z,16.60
2018-09-04T06:03:57.302Z,16.70
2018-09-04T06:06:54.813Z,16.80
2018-09-04T06:09:52.306Z,16.80
2018-09-04T06:12:50.617Z,16.90
2018-09-04T06:19:49.515Z,17.30
2018-09-04T06:22:47.323Z,19.10
2018-09-04T06:25:44.947Z,21.30
2018-09-04T06:28:42.559Z,23.00
2018-09-04T06:31:40.301Z,24.20
2018-09-04T06:34:38.113Z,24.90
2018-09-04T06:37:35.845Z,25.60
2018-09-04T06:40:33.587Z,25.80
2018-09-04T06:43:31.511Z,26.00
2018-09-04T06:46:29.306Z,26.30
2018-09-04T06:49:27.140Z,26.30
2018-09-04T06:52:24.807Z,26.00
2018-09-04T06:55:22.551Z,26.00
2018-09-04T06:58:21.314Z,26.10
2018-09-04T07:01:19.235Z,25.90
2018-09-04T07:04:17.204Z,25.70
2018-09-04T07:07:14.902Z,26.50
2018-09-04T07:10:12.507Z,27.00
2018-09-04T07:13:10.191Z,27.00
2018-09-04T07:16:07.933Z,27.50
2018-09-04T07:19:06.440Z,27.50
2018-09-04T07:22:04.373Z,26.50
2018-09-04T07:25:06.177Z,25.30
2018-09-04T07:28:05.994Z,24.30
2018-09-04T07:31:04.018Z,23.50
2018-09-04T07:34:01.406Z,22.60
2018-09-04T07:36:59.103Z,22.90
2018-09-04T07:39:56.901Z,22.80
2018-09-04T07:42:54.717Z,22.80
2018-09-04T07:45:52.519Z,22.30
2018-09-04T07:48:50.208Z,22.30
2018-09-04T07:51:47.901Z,23.20
2018-09-04T07:54:45.668Z,24.60
2018-09-04T07:57:43.600Z,25.30
2018-09-04T08:00:43.394Z,24.80
2018-09-04T08:03:42.345Z,24.30
2018-09-04T08:06:39.817Z,24.50
2018-09-04T08:09:37.542Z,24.90
2018-09-04T08:12:35.525Z,24.90
2018-09-04T08:15:33.153Z,24.10
2018-09-04T08:18:30.884Z,23.90
2018-09-04T08:21:28.681Z,23.30
2018-09-04T08:24:27.359Z,22.90
2018-09-04T08:27:25.283Z,22.20
2018-09-04T08:30:23.922Z,21.70
2018-09-04T08:33:22.664Z,21.40
2018-09-04T08:36:20.548Z,21.30
2018-09-04T08:39:18.125Z,21.30
2018-09-04T08:42:16.264Z,21.50
2018-09-04T08:45:14.770Z,21.60
2018-09-04T08:48:19.340Z,21.60
2018-09-04T08:51:19.019Z,21.60
2018-09-04T08:54:16.619Z,21.80
2018-09-04T08:57:14.444Z,22.10
2018-09-04T09:00:12.185Z,22.20
2018-09-04T09:03:09.842Z,22.20
2018-09-04T09:06:07.459Z,22.30
2018-09-04T09:09:05.263Z,22.40
2018-09-04T09:12:02.868Z,22.80
2018-09-04T09:15:00.623Z,22.90
2018-09-04T09:17:58.275Z,23.00
2018-09-04T09:20:55.883Z,23.00
2018-09-04T09:23:54.483Z,22.70
2018-09-04T09:26:52.169Z,22.60
2018-09-04T09:30:53.105Z,22.50
2018-09-04T09:33:50.665Z,22.40
2018-09-04T09:36:48.564Z,23.30
2018-09-04T09:39:46.471Z,23.30
2018-09-04T09:42:45.233Z,23.90
2018-09-04T09:45:43.020Z,23.60
2018-09-04T09:48:46.854Z,23.40
2018-09-04T09:51:44.501Z,23.10
2018-09-04T09:54:42.000Z,23.10
2018-09-04T09:57:40.021Z,23.80
2018-09-04T10:00:41.651Z,25.20
2018-09-04T10:03:46.389Z,25.90
2018-09-04T10:06:44.559Z,26.30
2018-09-04T10:09:43.298Z,25.90
2018-09-04T10:12:40.987Z,24.60
2018-09-04T10:15:38.687Z,24.20
2018-09-04T10:18:36.709Z,23.70
2018-09-04T10:21:34.247Z,23.80
2018-09-04T10:24:31.923Z,24.20
2018-09-04T10:27:29.659Z,25.00
2018-09-04T10:30:27.470Z,25.80
2018-09-04T10:33:25.286Z,26.50
2018-09-04T10:36:23.022Z,25.80
2018-09-04T10:39:27.666Z,25.00
2018-09-04T10:42:30.472Z,24.20
2018-09-04T10:45:34.943Z,23.80
2018-09-04T10:48:33.642Z,23.60
2018-09-04T10:51:31.447Z,23.30
2018-09-04T10:54:29.087Z,23.20
2018-09-04T10:57:28.821Z,23.30
2018-09-04T11:00:26.947Z,23.40
2018-09-04T11:03:25.048Z,23.10
2018-09-04T11:06:22.593Z,23.30
2018-09-04T11:09:20.216Z,23.70
2018-09-04T11:12:18.758Z,24.00
2018-09-04T11:15:16.477Z,23.90
2018-09-04T11:18:13.934Z,23.40
2018-09-04T11:21:11.610Z,23.00
2018-09-04T11:24:09.131Z,22.70
2018-09-04T11:27:06.825Z,22.80
2018-09-04T11:30:04.601Z,22.90
2018-09-04T11:33:03.521Z,23.00
2018-09-04T11:36:01.362Z,23.20
2018-09-04T11:38:59.007Z,23.20
2018-09-04T11:41:56.623Z,23.00
2018-09-04T11:44:55.027Z,23.00
2018-09-04T11:47:52.516Z,23.00
2018-09-04T11:51:06.430Z,23.00
2018-09-04T11:54:03.866Z,22.90
2018-09-04T11:57:01.895Z,22.90
2018-09-04T11:59:59.639Z,22.80
2018-09-04T12:02:57.343Z,22.70
2018-09-04T12:05:55.198Z,22.80
2018-09-04T12:08:52.755Z,22.70
2018-09-04T12:11:55.524Z,22.60
2018-09-04T12:14:54.181Z,22.50
2018-09-04T12:17:53.031Z,22.60
2018-09-04T12:21:05.103Z,22.40
2018-09-04T12:24:02.852Z,22.50
2018-09-04T12:27:00.823Z,22.60
2018-09-04T12:29:58.143Z,22.40
2018-09-04T12:32:55.761Z,22.40
2018-09-04T12:35:53.604Z,22.50
2018-09-04T12:38:51.413Z,22.60
2018-09-04T12:41:49.114Z,22.60
2018-09-04T12:44:47.293Z,22.90
2018-09-04T12:47:45.491Z,22.90
2018-09-04T12:50:44.199Z,22.80
2018-09-04T12:53:41.744Z,22.60
2018-09-04T12:56:39.638Z,22.70
2018-09-04T12:59:37.440Z,22.60
2018-09-04T13:02:36.074Z,22.50
2018-09-04T13:05:33.857Z,22.50
2018-09-04T13:08:33.480Z,22.50
2018-09-04T13:11:31.232Z,22.30
2018-09-04T13:14:28.879Z,22.20
2018-09-04T13:17:26.539Z,22.30
2018-09-04T13:20:26.387Z,22.20
2018-09-04T13:23:24.391Z,22.40
2018-09-04T13:26:22.111Z,22.50
2018-09-04T13:29:19.952Z,22.70
2018-09-04T13:32:17.786Z,22.70
2018-09-04T13:35:15.566Z,22.90
2018-09-04T13:38:14.253Z,23.10
2018-09-04T13:41:15.062Z,23.40
2018-09-04T13:44:12.755Z,23.70
2018-09-04T13:47:10.481Z,23.70
2018-09-04T13:50:08.265Z,23.80
2018-09-04T13:53:06.058Z,23.70
2018-09-04T13:56:04.844Z,23.70
2018-09-04T13:59:02.400Z,23.80
2018-09-04T14:02:00.178Z,23.40
2018-09-04T14:04:57.944Z,23.40
2018-09-04T14:07:55.383Z,23.50
2018-09-04T14:10:53.296Z,23.70
2018-09-04T14:13:51.054Z,23.50
2018-09-04T14:16:49.777Z,23.40
2018-09-04T14:19:47.394Z,23.30
2018-09-04T14:22:45.133Z,23.10
2018-09-04T14:25:42.787Z,23.30
2018-09-04T14:28:41.762Z,23.20
2018-09-04T14:31:38.235Z,23.00
2018-09-04T14:34:35.833Z,22.90
2018-09-04T14:37:33.557Z,22.70
2018-09-04T14:40:31.131Z,22.60
2018-09-04T14:43:28.880Z,22.50
2018-09-04T14:46:26.465Z,22.40
2018-09-04T14:49:24.202Z,22.40
2018-09-04T14:52:21.884Z,22.40
2018-09-04T14:55:19.556Z,22.40
2018-09-04T14:58:17.571Z,22.40
2018-09-04T15:01:15.281Z,22.40
2018-09-04T15:04:13.391Z,22.30
2018-09-04T15:07:11.528Z,22.30
2018-09-04T15:10:10.272Z,22.20
2018-09-04T15:13:08.087Z,22.10
2018-09-04T15:16:05.828Z,22.00
2018-09-04T15:19:03.641Z,21.90
2018-09-04T15:22:02.505Z,21.80
2018-09-04T15:24:59.973Z,21.90
2018-09-04T15:27:58.693Z,21.70
2018-09-04T15:30:56.437Z,21.60
2018-09-04T15:33:54.270Z,21.70
2018-09-04T15:36:52.102Z,21.80
2018-09-04T15:39:49.856Z,21.60
2018-09-04T15:42:47.746Z,21.70
2018-09-04T15:45:45.374Z,21.60
2018-09-04T15:48:44.108Z,21.60
2018-09-04T15:51:41.728Z,21.50
2018-09-04T15:54:39.363Z,21.60
2018-09-04T15:58:25.904Z,21.60
2018-09-04T16:01:23.412Z,21.50
2018-09-04T16:04:21.222Z,21.40
2018-09-04T16:07:18.923Z,21.40
2018-09-04T16:10:16.456Z,21.50
2018-09-04T16:13:14.342Z,21.60
2018-09-04T16:16:12.358Z,21.50
2018-09-04T16:19:09.902Z,21.50
2018-09-04T16:22:07.649Z,21.40
2018-09-04T16:25:05.418Z,21.40
2018-09-04T16:28:03.219Z,21.40
2018-09-04T16:31:00.815Z,21.30
2018-09-04T16:33:58.506Z,21.30
2018-09-04T16:36:56.148Z,21.30
2018-09-04T16:39:53.782Z,21.20
2018-09-04T16:42:51.483Z,21.20
2018-09-04T16:45:49.184Z,21.20
2018-09-04T16:48:46.902Z,21.20
2018-09-04T16:51:44.612Z,21.00
2018-09-04T16:54:42.498Z,21.00
2018-09-04T16:57:40.118Z,20.90
2018-09-04T17:00:37.833Z,20.90
2018-09-04T17:03:36.379Z,20.80
2018-09-04T17:06:34.214Z,20.80
2018-09-04T17:09:31.947Z,20.70
2018-09-04T17:12:29.559Z,20.70
2018-09-04T17:15:27.278Z,20.60
2018-09-04T17:18:24.928Z,20.40
2018-09-04T17:21:22.544Z,20.40
2018-09-04T17:24:20.146Z,20.40
2018-09-04T17:27:17.805Z,20.30
2018-09-04T17:30:15.774Z,20.20
2018-09-04T17:33:13.159Z,20.10
2018-09-04T17:36:10.762Z,20.10
2018-09-04T17:39:08.370Z,20.10
2018-09-04T17:42:06.071Z,20.10
2018-09-04T17:45:03.774Z,20.00
2018-09-04T17:48:01.400Z,20.00
2018-09-04T17:50:59.124Z,19.90
2018-09-04T17:53:56.784Z,19.90
2018-09-04T17:56:54.738Z,19.80
2018-09-04T17:59:52.388Z,19.70
2018-09-04T18:02:50.204Z,19.70
2018-09-04T18:05:47.830Z,19.60
2018-09-04T18:08:45.896Z,19.60
2018-09-04T18:11:43.964Z,19.50
2018-09-04T18:14:41.858Z,19.50
2018-09-04T18:17:39.405Z,19.40
2018-09-04T18:20:37.218Z,19.40
2018-09-04T18:23:35.012Z,19.30
2018-09-04T18:26:32.823Z,19.30
2018-09-04T18:29:30.826Z,19.30
2018-09-04T18:32:28.269Z,19.20
2018-09-04T18:35:26.053Z,19.20
2018-09-04T18:38:24.860Z,19.20
2018-09-04T18:41:22.796Z,19.10
2018-09-04T18:44:20.621Z,19.10
2018-09-04T18:47:18.423Z,19.00
2018-09-04T18:50:16.306Z,19.00
2018-09-04T18:53:14.191Z,18.90
2018-09-04T18:56:11.847Z,18.80
2018-09-04T18:59:10.088Z,18.90
2018-09-04T19:02:08.602Z,18.80
2018-09-04T19:05:06.255Z,18.80
2018-09-04T19:08:04.125Z,18.80
2018-09-04T19:11:01.979Z,18.80
2018-09-04T19:13:59.652Z,18.70
2018-09-04T19:16:57.448Z,18.80
2018-09-04T19:19:55.147Z,18.80
2018-09-04T19:22:52.953Z,18.70
2018-09-04T19:25:50.587Z,18.60
2018-09-04T19:28:49.214Z,18.50
2018-09-04T19:31:46.915Z,18.50
2018-09-04T19:34:44.734Z,18.40
2018-09-04T19:37:42.560Z,18.20
2018-09-04T19:40:40.314Z,18.10
2018-09-04T19:43:38.312Z,18.10
2018-09-04T19:46:36.874Z,17.90
2018-09-04T19:49:34.791Z,17.80
2018-09-04T19:52:32.583Z,17.70
2018-09-04T19:55:31.610Z,17.80
2018-09-04T19:58:29.576Z,17.80
2018-09-04T20:01:27.444Z,17.80
2018-09-04T20:04:25.175Z,17.70
2018-09-04T20:07:23.131Z,17.70
2018-09-04T20:10:20.972Z,17.60
2018-09-04T20:13:18.774Z,17.60
2018-09-04T20:16:16.772Z,17.50
2018-09-04T20:19:14.778Z,17.50
2018-09-04T20:22:12.776Z,17.50
2018-09-04T20:25:10.509Z,17.50
2018-09-04T20:28:08.039Z,17.40
2018-09-04T20:31:05.783Z,17.30
2018-09-04T20:34:03.475Z,17.30
2018-09-04T20:37:01.156Z,17.30
2018-09-04T20:39:58.958Z,17.20
2018-09-04T20:42:56.815Z,17.10
2018-09-04T20:45:55.014Z,17.20
2018-09-04T20:48:52.708Z,17.10
2018-09-04T20:51:50.462Z,17.10
2018-09-04T20:54:48.368Z,17.00
2018-09-04T20:57:47.094Z,17.00
2018-09-04T21:00:57.005Z,16.90
2018-09-04T21:04:06.834Z,16.90
2018-09-04T21:07:09.452Z,16.90
2018-09-04T21:10:07.310Z,16.90
2018-09-04T21:13:06.189Z,16.90
2018-09-04T21:16:03.870Z,16.90
2018-09-04T21:19:01.798Z,16.90
2018-09-04T21:21:59.758Z,16.80
2018-09-04T21:24:57.532Z,16.80
2018-09-04T21:27:55.583Z,16.70
2018-09-04T21:30:53.332Z,16.60
2018-09-04T21:33:51.091Z,16.60
2018-09-04T21:36:48.842Z,16.50
2018-09-04T21:39:46.615Z,16.40
2018-09-04T21:42:44.458Z,16.50
2018-09-04T21:45:42.143Z,16.50
2018-09-04T21:48:40.124Z,16.50
2018-09-04T21:51:37.651Z,16.60
2018-09-04T21:54:35.578Z,16.60
2018-09-04T21:57:33.521Z,16.60
2018-09-04T22:00:32.418Z,16.60
2018-09-04T22:03:30.171Z,16.50
2018-09-04T22:06:28.203Z,16.50
2018-09-04T22:09:25.740Z,16.50
2018-09-04T22:12:23.500Z,16.50
2018-09-04T22:15:21.064Z,16.50
2018-09-04T22:18:18.762Z,16.40
2018-09-04T22:21:16.523Z,16.40
2018-09-04T22:24:14.290Z,16.40
2018-09-04T22:27:13.249Z,16.50
2018-09-04T22:30:11.180Z,16.50
2018-09-04T22:33:09.265Z,16.50
2018-09-04T22:36:07.216Z,16.50
2018-09-04T22:39:05.079Z,16.40
2018-09-04T22:42:02.849Z,16.50
2018-09-04T22:45:00.775Z,16.40
2018-09-04T22:47:58.674Z,16.20
2018-09-04T22:51:02.323Z,16.20
2018-09-04T22:54:00.095Z,16.20
2018-09-04T22:56:58.001Z,16.30
2018-09-04T22:59:55.759Z,16.30
2018-09-04T23:02:53.753Z,16.20
2018-09-04T23:05:51.229Z,16.30
2018-09-04T23:08:49.236Z,16.40
2018-09-04T23:11:47.130Z,16.30
2018-09-04T23:14:44.909Z,16.20
2018-09-04T23:17:42.819Z,16.20
2018-09-04T23:20:40.494Z,16.20
2018-09-04T23:23:38.373Z,16.10
2018-09-04T23:26:36.202Z,16.00
2018-09-04T23:29:34.692Z,15.90
2018-09-04T23:32:32.435Z,15.90
2018-09-04T23:35:30.240Z,15.90
2018-09-04T23:38:30.227Z,15.90
2018-09-04T23:41:27.815Z,15.90
2018-09-04T23:44:27.391Z,15.90
2018-09-04T23:47:25.113Z,15.80
2018-09-04T23:50:22.855Z,15.80
2018-09-04T23:53:20.578Z,15.80
2018-09-04T23:56:18.463Z,15.80
2018-09-04T23:59:16.313Z,15.80
